首页
METAR-TAF:

METAR-TAF

机场 :

摩爾曼斯克, 俄罗斯

纬度: 68-58N, 经度: 033-03E, 海拔: 51米

当前天气观测

该预报发布于25分钟前的11:00 UTC
静风
温度 -13°C
湿度 85%
气压 1021 hPa
能见度10公里或以上
多云层高于1600英尺

METAR: ULMM 121100Z 00000MPS 9999 BKN016 M13/M15 Q1021 R13/390060 NOSIG RMK QFE759

时间: 14:25 (11:25 UTC)

预报

该预报发布于3小时和35分钟前的07:50 UTC
预报有效从12日的 09点(UTC)到 13日的 09点(UTC)
风速4节,风向
能见度10公里或以上
多云层高于1100英尺
短暂存在
从 12日的 09点(UTC)到 12日的 18点(UTC)
风速2节,风向多变
能見度: 5000
多云层高于1100英尺, 积雨云.
小阵雪, 轻雾
成为
从 12日的 18点(UTC)到 12日的 20点(UTC)
风速6节,风向东南
短暂存在
从 12日的 20点(UTC)到 13日的 09点(UTC)
风速6节,风向东转东南
能見度: 3100
多云层高于1100英尺, 积雨云.
小阵雪, 轻雾

TAF: ULMM 120750Z 1209/1309 09002MPS 9999 BKN011 TEMPO 1209/1218 VRB01MPS 5000 -SHSN BR BKN011CB BECMG 1218/1220 14003MPS TEMPO 1220/1309 12003MPS 3100 -SHSN BR BKN011CB

超过4000个机场的气象观测和天气预报(METAR&TAF报告)。

可查询的气象台以黄色和红色小点在地图上表示。

将鼠标移到小点上方,可查看气象台名称。

然后点击查看天气观测和预报。

如需切换地图:点击带黑十字的绿色按钮放大地图;点击带横线的绿色按钮缩小地图;或者点击绿色箭头查看邻近地区的地图。


METAR-TAF: